Time;durP1;ratioP1;P1;durP2;ratioP2;P2;SDS_P1;SDS_P2;PMS_P1;PMS_P2;Temp;Humidity;BMP_temperature;BMP_pressure;BME280_temperature;BME280_humidity;BME280_pressure;Samples;Min_cycle;Max_cycle;Signal;HPM_P1;HPM_P2
2022/11/06 00:02:17;;;;;;;14.13;3.80;;;4.90;99.90;;;4.90;100.00;100697.81;4963277;28;20692;-74
2022/11/06 00:04:47;;;;;;;16.13;4.43;;;4.90;99.90;;;4.82;100.00;100695.81;4963984;28;20236;-73
2022/11/06 00:07:14;;;;;;;14.82;4.05;;;4.90;99.90;;;4.85;100.00;100696.75;4979297;28;20318;-76
2022/11/06 00:09:41;;;;;;;15.07;4.03;;;4.90;99.90;;;4.81;100.00;100701.88;4975042;28;20314;-74
2022/11/06 00:12:08;;;;;;;13.25;3.40;;;4.80;99.90;;;4.79;100.00;100695.69;4956198;28;20595;-72
2022/11/06 00:14:35;;;;;;;17.73;4.63;;;4.80;99.90;;;4.76;100.00;100698.19;4963604;28;20294;-74
2022/11/06 00:17:03;;;;;;;12.50;3.28;;;4.80;99.90;;;4.86;100.00;100707.28;4952789;28;21627;-74
2022/11/06 00:19:29;;;;;;;13.95;4.13;;;4.80;99.90;;;4.86;100.00;100695.91;4967483;28;20235;-73
2022/11/06 00:21:57;;;;;;;13.20;3.72;;;4.90;99.90;;;4.83;100.00;100697.59;4988154;28;20240;-72
2022/11/06 00:24:24;;;;;;;15.70;4.05;;;4.90;99.90;;;4.90;100.00;100703.06;4984871;28;20235;-72
2022/11/06 00:26:51;;;;;;;19.13;5.47;;;4.90;99.90;;;4.80;100.00;100688.72;4961062;28;20235;-72
2022/11/06 00:29:20;;;;;;;15.65;4.25;;;4.80;99.90;;;4.73;100.00;100691.97;4979266;28;20238;-72
2022/11/06 00:31:49;;;;;;;16.50;4.63;;;4.80;99.90;;;4.59;100.00;100670.50;4964454;28;20313;-72
2022/11/06 00:34:16;;;;;;;18.02;4.95;;;4.70;99.90;;;4.62;100.00;100675.84;4963436;28;20228;-72
2022/11/06 00:36:43;;;;;;;15.30;4.18;;;4.70;99.90;;;4.64;100.00;100692.53;4965312;28;20342;-72
2022/11/06 00:39:10;;;;;;;15.32;4.28;;;4.60;99.90;;;4.65;100.00;100690.78;4991032;28;21201;-73
2022/11/06 00:41:37;;;;;;;13.10;3.63;;;4.70;99.90;;;4.51;100.00;100677.19;4965812;28;20227;-72
2022/11/06 00:44:04;;;;;;;14.32;4.05;;;4.60;99.90;;;4.45;100.00;100674.34;4963514;28;20292;-72
2022/11/06 00:46:31;;;;;;;14.88;4.32;;;4.50;99.90;;;4.45;100.00;100679.56;4982884;28;20740;-72
2022/11/06 00:48:58;;;;;;;14.68;4.03;;;4.50;99.90;;;4.31;100.00;100660.72;4967568;28;20314;-72
2022/11/06 00:51:34;;;;;;;18.42;4.80;;;4.40;99.90;;;4.28;100.00;100660.63;4967155;28;20306;-72
2022/11/06 00:54:06;;;;;;;14.00;3.78;;;4.30;99.90;;;4.27;100.00;100669.31;4969333;28;20689;-72
2022/11/06 00:56:33;;;;;;;18.02;4.80;;;4.30;99.90;;;4.26;100.00;100675.38;4936880;28;1251779;-73
2022/11/06 00:59:05;;;;;;;16.50;4.65;;;4.30;99.90;;;4.26;100.00;100674.47;4966768;28;20231;-72
2022/11/06 01:01:39;;;;;;;15.52;4.38;;;4.30;99.90;;;4.16;100.00;100671.50;4981090;28;20251;-72
2022/11/06 01:04:13;;;;;;;15.35;4.07;;;4.30;99.90;;;4.09;100.00;100663.38;4963664;28;20322;-72
2022/11/06 01:06:44;;;;;;;15.82;4.15;;;4.20;99.90;;;4.18;100.00;100663.72;4983223;28;20231;-72
2022/11/06 01:09:15;;;;;;;12.23;3.78;;;4.20;99.90;;;4.09;100.00;100666.00;4961596;28;20712;-72
2022/11/06 01:11:47;;;;;;;16.65;4.50;;;4.10;99.90;;;4.07;100.00;100671.16;4978661;28;20321;-72
2022/11/06 01:14:38;;;;;;;11.75;3.30;;;4.10;99.90;;;4.07;100.00;100683.34;4987662;28;20254;-72
2022/11/06 01:17:05;;;;;;;15.80;4.38;;;4.10;99.90;;;4.00;100.00;100678.72;4984572;28;21300;-72
2022/11/06 01:19:32;;;;;;;14.95;4.22;;;4.00;99.90;;;4.01;100.00;100684.00;4981027;28;20251;-72
2022/11/06 01:21:59;;;;;;;15.32;4.00;;;4.10;99.90;;;3.92;100.00;100674.91;4982763;28;20320;-72
2022/11/06 01:24:27;;;;;;;19.08;4.95;;;4.00;99.90;;;3.96;100.00;100685.56;4970469;28;20227;-72
2022/11/06 01:26:55;;;;;;;18.35;4.93;;;4.00;99.90;;;3.96;100.00;100685.56;4979840;28;20640;-72
2022/11/06 01:29:43;;;;;;;17.65;4.53;;;4.00;99.90;;;3.97;100.00;100686.44;4987514;28;20238;-72
2022/11/06 01:32:10;;;;;;;14.55;4.00;;;4.30;99.90;;;3.95;100.00;100696.84;4965536;28;20290;-72
2022/11/06 01:34:38;;;;;;;12.20;3.72;;;4.00;99.90;;;3.84;100.00;100691.16;4982287;28;20255;-72
2022/11/06 01:37:05;;;;;;;15.88;4.18;;;4.00;99.90;;;3.86;100.00;100697.34;4965434;28;20242;-72
2022/11/06 01:39:37;;;;;;;15.73;4.43;;;3.90;99.90;;;3.81;100.00;100687.53;4966175;28;20235;-72
2022/11/06 01:42:04;;;;;;;16.73;4.70;;;3.80;99.90;;;3.81;100.00;100695.38;4981004;28;20267;-72
2022/11/06 01:44:34;;;;;;;17.67;4.57;;;3.90;99.90;;;3.80;100.00;100684.03;4980957;28;20652;-72
2022/11/06 01:47:13;;;;;;;11.43;3.10;;;3.80;99.90;;;3.79;100.00;100678.72;4998680;28;20258;-72
2022/11/06 01:49:41;;;;;;;15.82;4.28;;;3.90;99.90;;;3.69;100.00;100667.00;4981335;28;20321;-72
2022/11/06 01:52:11;;;;;;;16.73;4.53;;;3.80;99.90;;;3.67;100.00;100665.16;4966626;28;20377;-73
2022/11/06 01:54:42;;;;;;;17.13;4.65;;;3.70;99.90;;;3.69;100.00;100668.72;4962127;28;20310;-72
2022/11/06 01:57:10;;;;;;;16.65;4.63;;;3.70;99.90;;;3.61;100.00;100660.56;4984418;28;20310;-72
2022/11/06 01:59:43;;;;;;;15.38;4.15;;;3.70;99.90;;;3.58;100.00;100646.47;4969250;28;20300;-72
2022/11/06 02:02:10;;;;;;;15.18;4.28;;;3.70;99.90;;;3.49;100.00;100640.06;4963675;28;20251;-72
2022/11/06 02:04:43;;;;;;;16.98;4.68;;;3.60;99.90;;;3.38;100.00;100638.72;4965482;28;20615;-72
2022/11/06 02:07:11;;;;;;;14.55;4.07;;;3.50;99.90;;;3.38;100.00;100643.06;4980692;28;20315;-72
2022/11/06 02:09:38;;;;;;;15.70;4.28;;;3.60;99.90;;;3.47;100.00;100657.41;4980702;28;20306;-73
2022/11/06 02:12:59;;;;;;;16.55;4.53;;;3.50;99.90;;;3.49;100.00;100660.06;4980475;28;20313;-73
2022/11/06 02:15:32;;;;;;;15.40;4.25;;;3.50;99.90;;;3.53;100.00;100662.88;4949296;28;20252;-73
2022/11/06 02:18:35;;;;;;;17.73;4.90;;;3.60;99.90;;;3.46;100.00;100658.22;4996243;28;20231;-72
2022/11/06 02:21:19;;;;;;;15.80;4.22;;;3.60;99.90;;;3.46;100.00;100654.72;4980914;28;20242;-73
2022/11/06 02:24:49;;;;;;;16.55;4.55;;;3.50;99.90;;;3.43;100.00;100641.53;4981868;28;20322;-72
2022/11/06 02:27:23;;;;;;;18.15;5.00;;;3.50;99.90;;;3.33;100.00;100631.53;4970267;28;22314;-72
2022/11/06 02:30:06;;;;;;;15.95;4.50;;;3.40;99.90;;;3.30;100.00;100637.53;4978590;28;20246;-72
2022/11/06 02:33:29;;;;;;;13.57;3.83;;;3.30;99.90;;;3.37;100.00;100641.28;4981087;28;20230;-73
2022/11/06 02:36:02;;;;;;;15.38;4.15;;;3.40;99.90;;;3.43;100.00;100647.66;4967958;28;20291;-73
2022/11/06 02:38:38;;;;;;;17.33;4.75;;;3.50;99.90;;;3.47;100.00;100644.31;4963590;28;20232;-73
2022/11/06 02:41:11;;;;;;;15.70;4.53;;;3.50;99.90;;;3.59;100.00;100658.72;4978732;28;20305;-73
2022/11/06 02:43:44;;;;;;;15.60;4.35;;;3.60;99.90;;;3.73;100.00;100671.53;4963539;28;20216;-73
2022/11/06 02:46:20;;;;;;;11.05;3.05;;;3.70;99.90;;;3.79;100.00;100679.63;4977795;28;20270;-73
2022/11/06 02:48:57;;;;;;;16.65;4.40;;;3.80;99.90;;;3.83;100.00;100685.88;4984061;28;20289;-72
2022/11/06 02:51:30;;;;;;;17.35;4.80;;;3.90;99.90;;;3.94;100.00;100695.06;4957329;28;20235;-72
2022/11/06 02:54:04;;;;;;;18.02;4.97;;;4.00;99.90;;;3.98;100.00;100693.47;4965307;28;20302;-72
2022/11/06 02:56:41;;;;;;;18.10;4.88;;;4.10;99.90;;;3.94;100.00;100696.78;4964920;28;20251;-73
2022/11/06 02:59:31;;;;;;;15.23;4.35;;;4.00;99.90;;;3.87;100.00;100690.38;4964990;28;20338;-72
2022/11/06 03:02:04;;;;;;;15.70;4.10;;;4.00;99.90;;;3.88;100.00;100693.91;4975293;28;20318;-72
2022/11/06 03:04:38;;;;;;;14.05;3.63;;;3.90;99.90;;;3.81;100.00;100687.53;4969076;28;20536;-74
2022/11/06 03:07:08;;;;;;;12.15;3.20;;;3.90;99.90;;;3.79;100.00;100678.72;5005413;28;20319;-74
2022/11/06 03:09:36;;;;;;;16.92;4.97;;;3.90;99.90;;;3.75;100.00;100679.44;4959301;28;20232;-74
2022/11/06 03:12:45;;;;;;;12.27;3.28;;;3.80;99.90;;;3.72;100.00;100687.16;4965989;28;20317;-74
2022/11/06 03:15:34;;;;;;;14.23;4.18;;;3.80;99.90;;;3.67;100.00;100680.84;4996644;28;20319;-74
2022/11/06 03:18:33;;;;;;;13.63;3.78;;;3.80;99.90;;;3.64;100.00;100686.84;4981003;28;20323;-74
2022/11/06 03:21:07;;;;;;;14.43;4.22;;;3.70;99.90;;;3.59;100.00;100677.94;4982093;28;20235;-74
2022/11/06 03:24:07;;;;;;;12.90;3.50;;;3.70;99.90;;;3.54;100.00;100671.63;4965700;28;20751;-73
2022/11/06 03:26:45;;;;;;;16.33;4.35;;;3.70;99.90;;;3.38;100.00;100671.81;4979363;28;20236;-74
2022/11/06 03:29:27;;;;;;;14.93;4.15;;;3.60;99.90;;;3.31;100.00;100670.66;4967618;28;20291;-73
2022/11/06 03:32:07;;;;;;;16.13;4.75;;;3.40;99.90;;;3.40;100.00;100676.28;4998497;28;20240;-73
2022/11/06 03:34:54;;;;;;;10.73;2.90;;;3.50;99.90;;;3.42;100.00;100669.41;4975316;28;20606;-73
2022/11/06 03:37:33;;;;;;;16.10;4.47;;;3.50;99.90;;;3.38;100.00;100661.34;4978014;28;20282;-73
2022/11/06 03:40:07;;;;;;;12.98;3.35;;;3.50;99.90;;;3.39;100.00;100653.59;4996864;28;20238;-73
2022/11/06 03:42:36;;;;;;;18.10;5.28;;;3.50;99.90;;;3.39;100.00;100650.97;4960912;28;20309;-74
2022/11/06 03:45:12;;;;;;;14.50;3.90;;;3.50;99.90;;;3.43;100.00;100652.00;4981551;28;20602;-73
2022/11/06 03:47:53;;;;;;;13.90;3.90;;;3.50;99.90;;;3.30;100.00;100629.69;4982484;28;20270;-73
2022/11/06 03:50:39;;;;;;;14.73;3.92;;;3.40;99.90;;;3.31;100.00;100643.63;4977967;28;20362;-73
2022/11/06 03:53:41;;;;;;;12.95;3.33;;;3.40;99.90;;;3.22;100.00;100628.47;4977660;28;20231;-73
2022/11/06 03:56:39;;;;;;;13.57;4.00;;;3.40;99.90;;;3.17;100.00;100625.66;4997162;28;20239;-73
2022/11/06 03:59:08;;;;;;;9.85;2.70;;;3.30;99.90;;;3.28;100.00;100631.34;4961668;28;20325;-74
2022/11/06 04:01:41;;;;;;;13.70;3.88;;;3.40;99.90;;;3.25;100.00;100625.09;4976616;28;20301;-73
2022/11/06 04:04:25;;;;;;;14.05;3.83;;;3.30;99.90;;;3.16;100.00;100612.53;4980249;28;20231;-73
2022/11/06 04:07:25;;;;;;;15.38;4.35;;;3.30;99.90;;;3.03;100.00;100611.13;4993926;28;20237;-74
2022/11/06 04:13:56;;;;;;;14.80;3.80;;;3.10;99.90;;;2.96;100.00;100600.38;4986583;28;20251;-74
2022/11/06 04:15:40;;;;;;;13.85;3.88;;;3.00;99.90;;;3.05;100.00;100613.81;4979139;28;20237;-73
2022/11/06 04:18:18;;;;;;;13.95;3.88;;;3.10;99.90;;;2.78;100.00;100590.94;4965749;28;20384;-73
2022/11/06 04:21:45;;;;;;;15.90;4.30;;;3.00;99.90;;;2.70;100.00;100600.16;4968080;28;20314;-73
2022/11/06 04:27:45;;;;;;;15.82;4.07;;;2.80;99.90;;;2.85;100.00;100631.25;4982281;28;20357;-73
2022/11/06 04:30:16;;;;;;;13.32;3.88;;;2.80;99.90;;;2.85;100.00;100639.09;4976702;28;20309;-73
2022/11/06 04:33:18;;;;;;;19.55;5.05;;;3.00;99.90;;;2.93;100.00;100647.25;4979530;28;20298;-73
2022/11/06 04:36:07;;;;;;;15.95;4.53;;;3.00;99.90;;;2.96;100.00;100656.13;4980678;28;20263;-73
2022/11/06 04:39:15;;;;;;;15.55;4.35;;;3.10;99.90;;;2.93;100.00;100647.25;4997271;28;20268;-73
2022/11/06 04:42:15;;;;;;;12.65;3.55;;;3.00;99.90;;;2.87;100.00;100671.41;4982628;28;20318;-73
2022/11/06 04:44:51;;;;;;;17.70;4.57;;;2.90;99.90;;;2.86;100.00;100677.44;4962686;28;20252;-73
2022/11/06 04:47:21;;;;;;;13.57;3.42;;;2.90;99.90;;;2.87;100.00;100666.16;4981446;28;20231;-73
2022/11/06 04:49:51;;;;;;;16.13;4.55;;;3.00;99.90;;;2.91;100.00;100660.25;4963252;28;20235;-73
2022/11/06 04:52:24;;;;;;;13.85;3.67;;;2.90;99.90;;;2.91;100.00;100659.34;4965749;28;20306;-73
2022/11/06 04:54:55;;;;;;;15.70;4.32;;;3.00;99.90;;;2.93;100.00;100668.16;4980705;28;20224;-73
2022/11/06 04:57:23;;;;;;;12.27;3.45;;;3.10;99.90;;;2.98;100.00;100671.84;4963796;28;20235;-73
2022/11/06 04:59:50;;;;;;;16.05;4.45;;;3.00;99.90;;;3.06;100.00;100687.03;4964143;28;20251;-73
2022/11/06 05:02:17;;;;;;;14.15;3.72;;;3.10;99.90;;;3.06;100.00;100680.91;4961070;28;20236;-73
2022/11/06 05:04:44;;;;;;;15.23;4.22;;;3.10;99.90;;;3.08;100.00;100685.38;4960709;28;20297;-73
2022/11/06 05:07:13;;;;;;;11.25;3.15;;;3.10;99.90;;;3.10;100.00;100686.34;4981987;28;20228;-73
2022/11/06 05:09:41;;;;;;;19.02;5.07;;;3.20;99.90;;;3.11;100.00;100682.91;4978585;28;20314;-73
2022/11/06 05:12:08;;;;;;;14.00;3.75;;;3.20;99.90;;;3.12;100.00;100686.41;4964060;28;20229;-73
2022/11/06 05:14:35;;;;;;;15.13;4.18;;;3.20;99.90;;;3.08;100.00;100680.16;4962358;28;20315;-73
2022/11/06 05:17:02;;;;;;;10.52;3.30;;;3.10;99.90;;;3.08;100.00;100676.66;4977992;28;20241;-73
2022/11/06 05:19:29;;;;;;;14.82;4.25;;;3.20;99.90;;;3.04;100.00;100666.91;4966269;28;20315;-73
2022/11/06 05:24:42;;;;;;;14.93;4.25;;;3.10;99.90;;;3.11;100.00;100668.94;4998438;28;20256;-73
2022/11/06 05:27:08;;;;;;;16.40;4.97;;;3.20;99.90;;;3.10;100.00;100668.03;4963163;28;20774;-73
2022/11/06 05:29:35;;;;;;;12.88;3.47;;;3.20;99.90;;;3.06;100.00;100663.53;4964431;28;20319;-73
2022/11/06 05:32:03;;;;;;;12.45;3.35;;;3.20;99.90;;;3.09;100.00;100681.06;4968771;28;20303;-73
2022/11/06 05:34:30;;;;;;;22.83;6.05;;;3.20;99.90;;;3.05;100.00;100677.41;4966936;28;22452;-73
2022/11/06 05:36:57;;;;;;;16.25;4.13;;;3.10;99.90;;;3.10;100.00;100683.72;4970794;28;20327;-73
2022/11/06 05:39:24;;;;;;;13.20;3.63;;;3.20;99.90;;;3.16;100.00;100675.25;4982321;28;20236;-73
2022/11/06 05:41:51;;;;;;;15.35;4.10;;;3.20;99.90;;;3.04;100.00;100646.00;4984575;28;20807;-73
2022/11/06 05:44:18;;;;;;;15.95;4.90;;;3.20;99.90;;;3.05;100.00;100640.84;4982902;28;20339;-74
2022/11/06 05:46:45;;;;;;;15.05;4.57;;;3.20;99.90;;;3.08;100.00;100634.84;4985306;28;20232;-73
2022/11/06 05:49:17;;;;;;;14.00;3.88;;;3.20;99.90;;;3.10;100.00;100636.69;4984288;28;20252;-72
2022/11/06 05:51:45;;;;;;;8.43;2.55;;;3.20;99.90;;;3.12;100.00;100635.03;4963345;28;20232;-72
2022/11/06 05:54:12;;;;;;;15.68;4.35;;;3.20;99.90;;;3.24;100.00;100645.09;4996441;28;20236;-71
2022/11/06 05:56:39;;;;;;;17.40;4.88;;;3.30;99.90;;;3.16;100.00;100641.28;4970153;28;20335;-71
2022/11/06 05:59:06;;;;;;;17.60;4.82;;;3.30;99.90;;;3.26;100.00;100648.69;4994643;28;20343;-70
2022/11/06 06:01:33;;;;;;;16.48;4.38;;;3.20;99.90;;;3.32;100.00;100645.41;4981588;28;20316;-71
2022/11/06 06:04:01;;;;;;;14.95;4.05;;;3.40;99.90;;;3.28;100.00;100639.19;4982341;28;20243;-71
2022/11/06 06:06:28;;;;;;;17.33;4.57;;;3.40;99.90;;;3.35;100.00;100645.56;4966898;28;20258;-71
2022/11/06 06:08:55;;;;;;;21.10;5.97;;;3.40;99.90;;;3.38;100.00;100638.72;4962947;28;20299;-70
2022/11/06 06:11:22;;;;;;;12.88;3.72;;;3.50;99.90;;;3.39;100.00;100629.16;4979333;28;20239;-70
2022/11/06 06:13:49;;;;;;;15.10;4.07;;;3.50;99.90;;;3.38;100.00;100623.03;4963646;28;20228;-71
2022/11/06 06:16:15;;;;;;;17.80;4.93;;;3.50;99.90;;;3.47;100.00;100627.75;4976023;28;20318;-71
2022/11/06 06:18:42;;;;;;;15.60;4.20;;;3.50;99.90;;;3.46;100.00;100637.31;4966015;28;20259;-71
2022/11/06 06:21:09;;;;;;;19.98;5.43;;;3.50;99.90;;;3.50;100.00;100634.00;4966138;28;20236;-71
2022/11/06 06:23:36;;;;;;;13.30;3.88;;;3.60;99.90;;;3.47;100.00;100628.63;4967138;28;20293;-71
2022/11/06 06:26:04;;;;;;;13.52;3.75;;;3.60;99.90;;;3.50;100.00;100627.88;4984147;28;20247;-72
2022/11/06 06:28:31;;;;;;;17.85;5.00;;;3.60;99.90;;;3.54;100.00;100629.78;4981196;28;20630;-71
2022/11/06 06:31:02;;;;;;;16.00;4.50;;;3.60;99.90;;;3.53;100.00;100618.44;4980869;28;20291;-71
2022/11/06 06:33:30;;;;;;;17.27;4.72;;;3.60;99.90;;;3.53;100.00;100615.81;4969317;28;20256;-71
2022/11/06 06:36:05;;;;;;;23.85;7.05;;;3.60;99.90;;;3.57;100.00;100608.97;4963612;28;20236;-72
2022/11/06 06:38:32;;;;;;;15.48;4.22;;;3.60;99.90;;;3.58;100.00;100604.66;4958093;28;20698;-71
2022/11/06 06:41:05;;;;;;;14.45;4.00;;;3.70;99.90;;;3.61;100.00;100613.50;4969318;28;20327;-70
2022/11/06 06:43:33;;;;;;;18.67;5.00;;;3.70;99.90;;;3.64;100.00;100613.63;4977744;28;20342;-71
2022/11/06 06:46:03;;;;;;;18.65;6.20;;;3.70;99.90;;;3.63;100.00;100598.75;4953748;28;20283;-71
2022/11/06 06:48:30;;;;;;;16.73;4.93;;;3.70;99.90;;;3.68;100.00;100605.06;4961141;28;20227;-71
2022/11/06 06:50:59;;;;;;;20.13;6.00;;;3.80;99.90;;;3.72;100.00;100606.06;4961453;28;20235;-72
2022/11/06 06:53:27;;;;;;;15.27;4.15;;;3.80;99.90;;;3.72;100.00;100600.84;4962553;28;20224;-73
2022/11/06 06:55:58;;;;;;;14.23;4.07;;;3.80;99.90;;;3.64;100.00;100595.31;4975943;28;20315;-73
2022/11/06 06:58:29;;;;;;;18.88;5.68;;;3.70;99.90;;;3.74;100.00;100607.91;4975311;28;21686;-72
2022/11/06 07:01:02;;;;;;;15.48;4.32;;;3.80;99.90;;;3.73;100.00;100611.38;4968565;28;20228;-72
2022/11/06 07:03:29;;;;;;;15.60;4.60;;;3.80;99.90;;;3.70;100.00;100608.63;4973602;28;20237;-72
2022/11/06 07:05:57;;;;;;;19.42;5.57;;;3.80;99.90;;;3.78;100.00;100604.59;4992240;28;20330;-72
2022/11/06 07:08:28;;;;;;;11.75;3.42;;;3.80;99.90;;;3.72;100.00;100598.22;4975920;28;20228;-72
2022/11/06 07:11:07;;;;;;;14.63;4.05;;;3.90;99.90;;;3.68;100.00;100594.59;4978834;28;20318;-71
2022/11/06 07:13:35;;;;;;;14.52;4.45;;;3.80;99.90;;;3.67;100.00;100586.69;4962476;28;20254;-72
2022/11/06 07:16:08;;;;;;;15.50;4.45;;;3.80;99.90;;;3.72;100.00;100603.47;4964534;28;20239;-72
2022/11/06 07:18:36;;;;;;;13.13;3.58;;;3.80;99.90;;;3.40;100.00;100586.50;4983791;28;20248;-72
2022/11/06 07:21:08;;;;;;;14.68;4.07;;;3.70;99.90;;;3.50;100.00;100597.38;5001238;28;20322;-72
2022/11/06 07:23:36;;;;;;;12.70;3.55;;;3.60;99.90;;;3.48;100.00;100596.44;4966510;28;20232;-73
2022/11/06 07:26:05;;;;;;;15.93;4.50;;;3.60;99.90;;;3.55;100.00;100610.66;4964151;28;20247;-72
2022/11/06 07:28:32;;;;;;;15.93;4.47;;;3.70;99.90;;;3.35;100.00;100588.94;4961554;28;20678;-72
2022/11/06 07:31:02;;;;;;;15.73;4.07;;;3.50;99.90;;;3.36;100.00;100585.50;4975723;28;20267;-72
2022/11/06 07:33:30;;;;;;;13.77;3.60;;;3.50;99.90;;;3.40;100.00;100590.00;4963766;28;20674;-73
2022/11/06 07:36:10;;;;;;;19.50;5.75;;;3.50;99.90;;;3.50;100.00;100610.47;4957778;28;20236;-72
2022/11/06 07:38:40;;;;;;;13.63;3.63;;;3.60;99.90;;;3.50;100.00;100614.81;4954413;28;20247;-72
2022/11/06 07:41:11;;;;;;;16.30;4.18;;;3.60;99.90;;;3.56;100.00;100628.13;4979669;28;20231;-72
2022/11/06 07:43:39;;;;;;;13.75;3.70;;;3.70;99.90;;;3.63;100.00;100635.38;4977391;28;20235;-72
2022/11/06 07:46:10;;;;;;;14.48;3.95;;;3.70;99.90;;;3.69;100.00;100643.47;4968244;28;20235;-73
2022/11/06 07:48:39;;;;;;;14.27;3.83;;;3.80;99.90;;;3.71;100.00;100647.03;4972452;28;20242;-72
2022/11/06 07:51:08;;;;;;;11.75;3.10;;;3.80;99.90;;;3.78;100.00;100663.88;4972769;28;20252;-72
2022/11/06 07:53:40;;;;;;;13.77;3.83;;;3.90;99.90;;;3.73;100.00;100663.69;4976267;28;20251;-72
2022/11/06 07:56:12;;;;;;;12.77;3.33;;;3.80;99.90;;;3.62;100.00;100664.97;4996544;28;20242;-72
2022/11/06 07:58:39;;;;;;;12.57;3.45;;;3.80;99.90;;;3.71;100.00;100688.00;4990894;28;20346;-72
2022/11/06 08:01:14;;;;;;;8.70;2.45;;;3.90;99.90;;;3.66;100.00;100672.09;4975490;28;20315;-72
2022/11/06 08:03:45;;;;;;;19.63;5.38;;;3.80;99.90;;;3.75;100.00;100682.06;4969520;28;20711;-71
2022/11/06 08:06:12;;;;;;;13.75;3.63;;;3.80;99.90;;;3.85;100.00;100676.34;4969062;28;20228;-72
2022/11/06 08:08:38;;;;;;;12.32;3.25;;;3.90;99.90;;;3.66;100.00;100666.88;4958611;28;20290;-71
2022/11/06 08:11:09;;;;;;;10.45;2.67;;;3.80;99.90;;;3.75;100.00;100671.59;4966009;28;20231;-71
2022/11/06 08:13:37;;;;;;;16.20;4.07;;;3.80;99.90;;;3.90;100.00;100671.31;4985946;28;20600;-72
2022/11/06 08:16:11;;;;;;;15.27;4.05;;;4.00;99.90;;;3.72;100.00;100658.38;4994735;28;20297;-72
2022/11/06 08:18:39;;;;;;;13.15;3.58;;;3.90;99.90;;;3.81;100.00;100671.84;4979027;28;20315;-72
2022/11/06 08:21:07;;;;;;;10.13;2.88;;;3.90;99.90;;;3.76;100.00;100669.03;4971968;28;20321;-72
2022/11/06 08:23:35;;;;;;;14.98;3.88;;;3.90;99.90;;;3.82;100.00;100673.63;4984452;28;20768;-72
2022/11/06 08:26:04;;;;;;;18.45;4.75;;;3.90;99.90;;;3.80;100.00;100680.50;4959348;28;20236;-72
2022/11/06 08:28:31;;;;;;;16.00;4.65;;;3.90;99.90;;;3.88;100.00;100686.03;4976969;28;20309;-72
2022/11/06 08:31:04;;;;;;;22.20;6.82;;;4.00;99.90;;;3.84;100.00;100677.19;4973738;28;20227;-72
2022/11/06 08:33:31;;;;;;;15.35;4.22;;;4.00;99.90;;;4.10;100.00;100693.94;4974727;28;20322;-73
2022/11/06 08:36:03;;;;;;;16.98;4.88;;;4.10;99.90;;;4.13;100.00;100697.56;4957905;28;20232;-72
2022/11/06 08:38:30;;;;;;;14.73;4.07;;;4.30;99.90;;;4.28;100.00;100707.75;4979140;28;20286;-73
2022/11/06 08:40:57;;;;;;;16.80;4.70;;;4.30;99.90;;;4.29;100.00;100698.16;4961244;28;20227;-73
2022/11/06 08:43:26;;;;;;;19.10;5.32;;;4.30;99.90;;;4.49;100.00;100716.41;4961937;28;21378;-73
2022/11/06 08:45:53;;;;;;;20.83;6.35;;;4.50;99.90;;;4.44;100.00;100709.22;4965525;28;20231;-72
2022/11/06 08:48:20;;;;;;;22.48;6.53;;;4.50;99.90;;;4.59;100.00;100709.78;4972946;28;20242;-72
2022/11/06 08:50:47;;;;;;;17.88;5.15;;;4.60;99.90;;;4.64;100.00;100697.75;4957574;28;20238;-70
2022/11/06 08:53:14;;;;;;;14.90;4.25;;;4.70;99.90;;;4.78;100.00;100698.25;4958745;28;20687;-70
2022/11/06 08:55:42;;;;;;;14.07;4.15;;;4.80;99.90;;;4.95;100.00;100722.44;4956839;28;20244;-71
2022/11/06 08:58:09;;;;;;;14.73;4.22;;;4.90;99.90;;;5.08;100.00;100717.69;4964581;28;20239;-71
2022/11/06 09:00:36;;;;;;;15.80;4.57;;;5.10;99.90;;;5.14;100.00;100703.91;4974449;28;20311;-71
2022/11/06 09:03:08;;;;;;;12.25;3.53;;;5.20;99.90;;;5.43;100.00;100716.34;4960456;28;20228;-70
2022/11/06 09:05:40;;;;;;;16.60;5.15;;;5.40;99.90;;;5.48;100.00;100708.63;4965557;28;20239;-70
2022/11/06 09:08:09;;;;;;;15.25;4.22;;;5.50;99.90;;;5.56;100.00;100716.75;4968483;28;20298;-70
2022/11/06 09:10:38;;;;;;;20.20;6.22;;;5.60;99.90;;;5.63;100.00;100710.88;4953670;28;20232;-70
2022/11/06 09:13:06;;;;;;;13.02;3.83;;;5.60;99.90;;;5.54;100.00;100687.84;4971336;28;20310;-70
2022/11/06 09:15:33;;;;;;;18.65;6.10;;;5.60;99.90;;;5.77;100.00;100699.97;4968490;28;20231;-70
2022/11/06 09:18:00;;;;;;;18.02;5.47;;;5.70;99.90;;;5.87;100.00;100700.28;4948050;28;20240;-70
2022/11/06 09:20:27;;;;;;;19.70;6.22;;;5.90;99.90;;;5.81;100.00;100695.72;4941871;28;20232;-70
2022/11/06 09:23:01;;;;;;;17.65;5.45;;;5.90;99.90;;;5.79;100.00;100685.16;4978594;28;20243;-70
2022/11/06 09:25:28;;;;;;;13.93;4.35;;;5.80;99.90;;;5.89;100.00;100681.13;4989529;28;20338;-70
2022/11/06 09:27:56;;;;;;;16.75;5.18;;;5.90;99.90;;;5.86;100.00;100677.50;4975438;28;20307;-71
2022/11/06 09:30:28;;;;;;;16.70;5.13;;;5.90;99.90;;;6.03;100.00;100685.09;4961543;28;20235;-71
2022/11/06 09:33:00;;;;;;;16.38;4.80;;;6.10;99.90;;;6.17;100.00;100674.13;4961868;28;20295;-70
2022/11/06 09:35:30;;;;;;;18.23;5.88;;;6.10;99.90;;;6.47;100.00;100690.78;4977660;28;20248;-71
2022/11/06 09:38:04;;;;;;;14.20;4.20;;;6.40;99.90;;;6.46;100.00;100702.16;4980084;28;20645;-70
2022/11/06 09:40:51;;;;;;;12.85;4.35;;;6.50;99.90;;;6.71;100.00;100704.69;4983433;28;20235;-71
2022/11/06 09:44:16;;;;;;;22.90;7.32;;;6.60;99.90;;;6.88;100.00;100705.16;4974624;28;20220;-71
2022/11/06 09:46:47;;;;;;;14.80;5.28;;;6.80;99.90;;;6.80;100.00;100698.78;4960414;28;20239;-71
2022/11/06 09:49:36;;;;;;;13.50;4.65;;;6.80;99.90;;;6.75;100.00;100689.88;4956070;28;20681;-71
2022/11/06 09:52:10;;;;;;;13.90;4.25;;;6.80;99.90;;;6.58;100.00;100668.38;4961815;28;20239;-72
2022/11/06 09:54:56;;;;;;;11.45;3.30;;;6.60;99.90;;;6.61;100.00;100664.97;4995174;28;20237;-72
2022/11/06 09:57:36;;;;;;;14.10;4.40;;;6.60;99.90;;;6.83;100.00;100663.81;4964080;28;20798;-70
2022/11/06 10:00:06;;;;;;;12.73;3.95;;;6.70;99.90;;;6.72;100.00;100632.88;4962735;28;20238;-72
2022/11/06 10:02:50;;;;;;;11.45;3.65;;;6.80;99.90;;;6.73;100.00;100623.25;4964537;28;20316;-71
2022/11/06 10:05:31;;;;;;;13.88;3.90;;;6.70;99.90;;;6.83;100.00;100629.66;4986213;28;20234;-71
2022/11/06 10:08:10;;;;;;;13.63;3.92;;;6.80;99.90;;;6.93;100.00;100637.81;4966732;28;20282;-71
2022/11/06 10:11:06;;;;;;;14.05;4.20;;;6.90;99.90;;;7.02;100.00;100634.53;4980202;28;20228;-71
2022/11/06 10:13:47;;;;;;;12.38;3.47;;;7.00;99.90;;;6.97;100.00;100610.75;4983251;28;20309;-71
2022/11/06 10:16:49;;;;;;;11.60;3.33;;;7.00;99.90;;;7.12;100.00;100617.25;5005617;28;20255;-71
2022/11/06 10:19:35;;;;;;;13.10;3.80;;;7.10;99.90;;;7.32;100.00;100622.19;4975555;28;20711;-73
2022/11/06 10:22:15;;;;;;;13.93;4.40;;;7.30;99.90;;;7.40;100.00;100622.38;4989707;28;20315;-70
2022/11/06 10:25:18;;;;;;;16.33;5.18;;;7.40;99.90;;;7.64;100.00;100633.50;4971450;28;20355;-70
2022/11/06 10:28:03;;;;;;;13.90;4.13;;;7.60;99.90;;;7.74;100.00;100638.97;4982478;28;20239;-70
2022/11/06 10:30:55;;;;;;;13.98;4.32;;;7.70;99.90;;;7.82;100.00;100648.88;4997949;28;20250;-71
2022/11/06 10:33:54;;;;;;;13.60;4.55;;;7.80;99.90;;;6.95;100.00;100582.66;4983783;28;20250;-74
2022/11/06 10:36:45;;;;;;;13.73;4.30;;;7.20;99.90;;;6.98;100.00;100588.00;4967667;28;20318;-72
2022/11/06 10:39:29;;;;;;;13.85;4.65;;;7.00;99.90;;;6.66;100.00;100574.00;4981931;28;20247;-72
2022/11/06 10:42:04;;;;;;;15.73;4.75;;;6.80;99.90;;;6.79;100.00;100577.84;4973085;28;20231;-72
2022/11/06 10:44:37;;;;;;;14.25;4.05;;;6.80;99.90;;;6.90;100.00;100573.75;5005094;28;20289;-72
2022/11/06 10:47:19;;;;;;;11.85;3.60;;;6.90;99.90;;;6.90;100.00;100571.13;4965669;28;20244;-72
2022/11/06 10:49:52;;;;;;;11.90;3.83;;;6.90;99.90;;;6.98;100.00;100581.00;4972782;28;20232;-72
2022/11/06 10:52:24;;;;;;;15.73;4.95;;;7.00;99.90;;;7.04;100.00;100572.38;4983480;28;20232;-71